createdAt,value
2022-08-02T00:00:40.350Z,23.23
2022-08-02T00:03:08.211Z,23.26
2022-08-02T00:05:37.420Z,22.82
2022-08-02T00:08:06.086Z,22.95
2022-08-02T00:10:33.920Z,23.00
2022-08-02T00:13:01.874Z,22.87
2022-08-02T00:15:29.816Z,23.10
2022-08-02T00:17:57.611Z,23.01
2022-08-02T00:20:25.507Z,23.13
2022-08-02T00:22:54.690Z,23.02
2022-08-02T00:25:22.623Z,22.51
2022-08-02T00:27:50.455Z,22.67
2022-08-02T00:30:18.287Z,22.90
2022-08-02T00:32:46.074Z,23.04
2022-08-02T00:35:13.968Z,22.76
2022-08-02T00:37:42.492Z,22.77
2022-08-02T00:40:13.064Z,22.92
2022-08-02T00:42:42.088Z,22.96
2022-08-02T00:45:10.796Z,22.99
2022-08-02T00:47:38.667Z,23.06
2022-08-02T00:50:08.119Z,22.34
2022-08-02T00:52:35.934Z,22.61
2022-08-02T00:55:03.982Z,22.76
2022-08-02T00:57:33.087Z,22.40
2022-08-02T01:00:00.920Z,22.51
2022-08-02T01:02:28.944Z,22.78
2022-08-02T01:04:56.756Z,22.33
2022-08-02T01:07:24.776Z,22.31
2022-08-02T01:09:52.794Z,22.62
2022-08-02T01:12:20.738Z,22.68
2022-08-02T01:14:54.397Z,22.94
2022-08-02T01:17:33.322Z,22.79
2022-08-02T01:20:19.777Z,22.72
2022-08-02T01:23:14.473Z,22.74
2022-08-02T01:26:10.453Z,22.20
2022-08-02T01:28:47.967Z,21.77
2022-08-02T01:31:23.196Z,22.10
2022-08-02T01:34:14.087Z,22.53
2022-08-02T01:36:49.334Z,22.38
2022-08-02T01:39:27.746Z,22.36
2022-08-02T01:42:03.013Z,22.54
2022-08-02T01:44:38.906Z,22.20
2022-08-02T01:47:17.875Z,22.43
2022-08-02T01:49:48.938Z,21.55
2022-08-02T01:52:26.080Z,21.33
2022-08-02T01:55:07.355Z,21.67
2022-08-02T01:57:42.364Z,22.10
2022-08-02T02:00:13.726Z,22.16
2022-08-02T02:02:47.478Z,22.05
2022-08-02T02:05:20.298Z,22.52
2022-08-02T02:07:54.701Z,22.24
2022-08-02T02:10:28.814Z,21.84
2022-08-02T02:13:02.861Z,21.75
2022-08-02T02:15:35.158Z,21.74
2022-08-02T02:18:12.475Z,21.64
2022-08-02T02:20:42.369Z,22.26
2022-08-02T02:23:10.913Z,22.28
2022-08-02T02:25:46.530Z,22.35
2022-08-02T02:28:24.162Z,22.31
2022-08-02T02:31:00.177Z,21.44
2022-08-02T02:33:31.671Z,20.91
2022-08-02T02:36:01.482Z,21.83
2022-08-02T02:38:33.853Z,21.94
2022-08-02T02:41:05.225Z,22.29
2022-08-02T02:43:36.215Z,21.98
2022-08-02T02:46:08.696Z,21.79
2022-08-02T02:48:38.746Z,21.63
2022-08-02T02:51:08.263Z,21.97
2022-08-02T02:54:30.343Z,21.92
2022-08-02T02:56:33.126Z,22.01
2022-08-02T02:59:01.744Z,21.75
2022-08-02T03:01:55.056Z,21.52
2022-08-02T03:04:21.909Z,21.72
2022-08-02T03:06:49.894Z,21.41
2022-08-02T03:09:17.740Z,21.55
2022-08-02T03:11:45.894Z,21.50
2022-08-02T03:14:14.445Z,21.50
2022-08-02T03:16:50.173Z,20.91
2022-08-02T03:19:19.336Z,20.61
2022-08-02T03:21:57.325Z,20.86
2022-08-02T03:24:27.829Z,20.92
2022-08-02T03:26:56.630Z,21.22
2022-08-02T03:29:24.617Z,21.21
2022-08-02T03:31:54.474Z,21.17
2022-08-02T03:34:23.198Z,21.19
2022-08-02T03:36:57.085Z,21.19
2022-08-02T03:39:27.078Z,21.30
2022-08-02T03:41:56.270Z,21.22
2022-08-02T03:44:26.375Z,21.54
2022-08-02T03:46:56.260Z,21.53
2022-08-02T03:49:25.493Z,21.72
2022-08-02T03:51:54.777Z,21.71
2022-08-02T03:54:23.482Z,21.62
2022-08-02T03:57:03.606Z,21.64
2022-08-02T03:59:42.845Z,21.76
2022-08-02T04:02:13.737Z,21.90
2022-08-02T04:04:41.941Z,21.82
2022-08-02T04:07:09.884Z,21.89
2022-08-02T04:09:37.690Z,21.56
2022-08-02T04:12:06.584Z,21.43
2022-08-02T04:14:36.646Z,21.40
2022-08-02T04:17:09.632Z,21.38
2022-08-02T04:19:44.877Z,21.48
2022-08-02T04:22:19.401Z,21.49
2022-08-02T04:24:55.289Z,21.43
2022-08-02T04:27:50.046Z,21.56
2022-08-02T04:30:14.924Z,21.40
2022-08-02T04:32:45.049Z,21.17
2022-08-02T04:35:20.216Z,21.53
2022-08-02T04:38:05.766Z,21.84
2022-08-02T04:40:38.804Z,21.53
2022-08-02T04:43:06.765Z,22.42
2022-08-02T04:45:35.122Z,22.54
2022-08-02T04:48:05.242Z,21.99
2022-08-02T04:50:35.714Z,22.21
2022-08-02T04:53:04.229Z,22.49
2022-08-02T04:55:32.174Z,22.79
2022-08-02T04:58:03.798Z,22.47
2022-08-02T05:00:35.195Z,22.52
2022-08-02T05:03:03.186Z,22.76
2022-08-02T05:05:31.038Z,22.79
2022-08-02T05:08:00.810Z,22.82
2022-08-02T05:10:28.685Z,22.82
2022-08-02T05:12:56.637Z,22.75
2022-08-02T05:15:24.613Z,22.84
2022-08-02T05:17:52.716Z,22.23
2022-08-02T05:20:21.049Z,22.50
2022-08-02T05:22:48.882Z,22.62
2022-08-02T05:25:18.025Z,22.88
2022-08-02T05:27:45.834Z,22.90
2022-08-02T05:30:13.881Z,23.15
2022-08-02T05:32:47.715Z,23.17
2022-08-02T05:35:19.360Z,23.26
2022-08-02T05:37:48.143Z,23.23
2022-08-02T05:40:18.333Z,23.27
2022-08-02T05:42:53.714Z,23.28
2022-08-02T05:45:21.733Z,23.75
2022-08-02T05:47:49.531Z,23.84
2022-08-02T05:50:17.784Z,24.36
2022-08-02T05:52:57.713Z,24.55
2022-08-02T05:55:34.101Z,24.56
2022-08-02T05:58:14.070Z,24.39
2022-08-02T06:00:43.047Z,24.04
2022-08-02T06:03:23.190Z,24.26
2022-08-02T06:06:01.338Z,24.41
2022-08-02T06:08:39.365Z,24.73
2022-08-02T06:11:14.048Z,24.76
2022-08-02T06:13:43.316Z,24.71
2022-08-02T06:16:14.153Z,24.83
2022-08-02T06:18:44.353Z,24.76
2022-08-02T06:22:32.484Z,24.85
2022-08-02T06:24:06.328Z,24.62
2022-08-02T06:26:37.690Z,24.87
2022-08-02T06:29:06.280Z,24.86
2022-08-02T06:31:34.156Z,25.02
2022-08-02T06:34:01.958Z,25.08
2022-08-02T06:36:43.087Z,25.00
2022-08-02T06:39:21.032Z,24.80
2022-08-02T06:41:53.257Z,25.38
2022-08-02T06:44:45.935Z,24.69
2022-08-02T06:47:10.793Z,24.82
2022-08-02T06:49:52.599Z,24.98
2022-08-02T06:52:28.168Z,25.17
2022-08-02T06:54:58.527Z,25.08
2022-08-02T06:57:28.342Z,25.19
2022-08-02T06:59:57.191Z,25.05
2022-08-02T07:02:25.449Z,24.69
2022-08-02T07:04:53.515Z,24.93
2022-08-02T07:07:21.446Z,24.89
2022-08-02T07:09:57.266Z,24.93
2022-08-02T07:12:31.866Z,24.42
2022-08-02T07:15:00.783Z,23.99
2022-08-02T07:17:29.302Z,23.57
2022-08-02T07:19:57.668Z,23.86
2022-08-02T07:22:27.152Z,24.21
2022-08-02T07:24:57.717Z,24.05
2022-08-02T07:27:26.389Z,23.89
2022-08-02T07:29:56.730Z,23.80
2022-08-02T07:32:27.165Z,24.50
2022-08-02T07:34:56.089Z,24.30
2022-08-02T07:37:53.527Z,23.61
2022-08-02T07:40:19.848Z,23.52
2022-08-02T07:42:49.797Z,24.07
2022-08-02T07:45:19.033Z,24.18
2022-08-02T07:47:47.863Z,24.65
2022-08-02T07:50:19.042Z,25.08
2022-08-02T07:52:48.370Z,25.37
2022-08-02T07:55:17.884Z,25.24
2022-08-02T07:57:47.056Z,25.33
2022-08-02T08:00:18.676Z,24.83
2022-08-02T08:02:47.973Z,24.71
2022-08-02T08:05:16.229Z,24.95
2022-08-02T08:07:44.216Z,24.86
2022-08-02T08:10:12.200Z,25.02
2022-08-02T08:12:40.102Z,25.45
2022-08-02T08:15:09.267Z,25.71
2022-08-02T08:17:39.053Z,25.56
2022-08-02T08:20:09.426Z,25.36
2022-08-02T08:22:39.585Z,25.81
2022-08-02T08:25:08.208Z,25.97
2022-08-02T08:27:36.063Z,25.13
2022-08-02T08:30:05.062Z,25.09
2022-08-02T08:32:32.856Z,25.68
2022-08-02T08:35:03.626Z,25.96
2022-08-02T08:37:35.617Z,25.48
2022-08-02T08:40:05.817Z,25.68
2022-08-02T08:42:36.721Z,25.49
2022-08-02T08:45:05.949Z,25.90
2022-08-02T08:47:37.497Z,25.89
2022-08-02T08:50:17.910Z,26.06
2022-08-02T08:52:53.434Z,25.53
2022-08-02T08:55:24.901Z,25.95
2022-08-02T08:57:55.479Z,25.42
2022-08-02T09:00:23.317Z,25.30
2022-08-02T09:02:51.291Z,24.76
2022-08-02T09:05:20.579Z,25.19
2022-08-02T09:07:49.780Z,26.05
2022-08-02T09:10:36.098Z,25.43
2022-08-02T09:13:37.984Z,25.57
2022-08-02T09:16:10.922Z,25.69
2022-08-02T09:18:45.013Z,26.17
2022-08-02T09:21:17.535Z,25.78
2022-08-02T09:23:47.765Z,26.07
2022-08-02T09:26:19.085Z,26.17
2022-08-02T09:28:50.323Z,25.62
2022-08-02T09:31:20.956Z,26.01
2022-08-02T09:33:54.938Z,25.90
2022-08-02T09:36:25.905Z,26.28
2022-08-02T09:38:58.010Z,25.86
2022-08-02T09:41:28.476Z,25.82
2022-08-02T09:44:04.285Z,26.59
2022-08-02T09:46:38.708Z,25.90
2022-08-02T09:49:10.534Z,26.40
2022-08-02T09:51:49.265Z,26.47
2022-08-02T09:54:20.195Z,26.48
2022-08-02T09:56:51.299Z,26.46
2022-08-02T09:59:22.315Z,26.66
2022-08-02T10:01:58.957Z,26.74
2022-08-02T10:04:34.462Z,26.50
2022-08-02T10:07:23.110Z,26.71
2022-08-02T10:09:52.581Z,26.48
2022-08-02T10:12:22.327Z,26.25
2022-08-02T10:14:51.908Z,26.32
2022-08-02T10:17:20.573Z,25.87
2022-08-02T10:20:02.938Z,26.65
2022-08-02T10:22:36.369Z,26.12
2022-08-02T10:25:06.358Z,26.59
2022-08-02T10:28:03.740Z,26.68
2022-08-02T10:30:27.948Z,26.84
2022-08-02T10:32:58.699Z,26.53
2022-08-02T10:35:27.646Z,25.94
2022-08-02T10:38:03.738Z,26.26
2022-08-02T10:40:45.766Z,26.09
2022-08-02T10:43:14.882Z,25.30
2022-08-02T10:45:42.693Z,25.20
2022-08-02T10:48:14.550Z,26.29
2022-08-02T10:50:55.704Z,26.50
2022-08-02T10:53:28.228Z,26.48
2022-08-02T10:55:59.518Z,26.72
2022-08-02T10:58:30.452Z,26.44
2022-08-02T11:00:59.930Z,24.85
2022-08-02T11:03:41.970Z,25.59
2022-08-02T11:06:25.493Z,25.37
2022-08-02T11:09:33.334Z,25.07
2022-08-02T11:12:05.993Z,25.25
2022-08-02T11:14:36.307Z,26.46
2022-08-02T11:17:11.182Z,25.55
2022-08-02T11:20:17.776Z,25.87
2022-08-02T11:22:47.750Z,25.41
2022-08-02T11:26:02.593Z,26.18
2022-08-02T11:28:26.221Z,25.31
2022-08-02T11:31:02.974Z,24.78
2022-08-02T11:33:36.863Z,26.11
2022-08-02T11:36:07.588Z,26.25
2022-08-02T11:38:35.704Z,25.69
2022-08-02T11:41:06.010Z,26.76
2022-08-02T11:43:34.723Z,26.71
2022-08-02T11:46:04.352Z,25.37
2022-08-02T11:48:34.312Z,26.74
2022-08-02T11:51:10.646Z,26.29
2022-08-02T11:53:47.989Z,26.69
2022-08-02T11:56:25.196Z,26.90
2022-08-02T11:59:04.971Z,25.90
2022-08-02T12:01:35.220Z,26.18
2022-08-02T12:04:13.260Z,25.75
2022-08-02T12:06:41.224Z,25.43
2022-08-02T12:09:18.874Z,26.56
2022-08-02T12:11:50.784Z,26.18
2022-08-02T12:14:19.471Z,26.61
2022-08-02T12:17:08.502Z,26.39
2022-08-02T12:19:38.215Z,27.00
2022-08-02T12:22:17.570Z,27.09
2022-08-02T12:24:49.115Z,26.89
2022-08-02T12:27:36.175Z,26.29
2022-08-02T12:30:09.074Z,25.85
2022-08-02T12:32:38.062Z,26.46
2022-08-02T12:35:11.316Z,26.87
2022-08-02T12:37:43.217Z,27.09
2022-08-02T12:40:26.471Z,26.98
2022-08-02T12:42:59.010Z,27.05
2022-08-02T12:45:39.986Z,27.69
2022-08-02T12:48:10.338Z,27.23
2022-08-02T12:50:39.915Z,27.41
2022-08-02T12:53:10.908Z,27.14
2022-08-02T12:56:02.024Z,26.81
2022-08-02T12:58:49.188Z,27.11
2022-08-02T13:01:23.210Z,26.31
2022-08-02T13:04:11.578Z,26.21
2022-08-02T13:06:46.615Z,26.46
2022-08-02T13:09:17.048Z,26.58
2022-08-02T13:11:45.549Z,26.44
2022-08-02T13:14:16.400Z,26.80
2022-08-02T13:16:46.707Z,27.41
2022-08-02T13:19:16.198Z,27.78
2022-08-02T13:22:01.526Z,27.62
2022-08-02T13:24:40.569Z,27.25
2022-08-02T13:27:25.956Z,27.56
2022-08-02T13:29:57.118Z,27.64
2022-08-02T13:32:26.412Z,27.64
2022-08-02T13:34:54.245Z,27.66
2022-08-02T13:37:24.507Z,27.37
2022-08-02T13:40:18.870Z,27.40
2022-08-02T13:42:40.667Z,28.00
2022-08-02T13:45:16.331Z,28.10
2022-08-02T13:48:03.388Z,28.19
2022-08-02T13:50:33.295Z,28.37
2022-08-02T13:53:01.117Z,27.26
2022-08-02T13:55:29.108Z,27.56
2022-08-02T13:57:57.065Z,27.92
2022-08-02T14:00:35.828Z,27.64
2022-08-02T14:03:06.772Z,27.92
2022-08-02T14:05:46.972Z,27.39
2022-08-02T14:08:17.862Z,27.36
2022-08-02T14:10:47.020Z,27.34
2022-08-02T14:13:15.176Z,27.51
2022-08-02T14:15:45.106Z,27.71
2022-08-02T14:18:14.708Z,27.93
2022-08-02T14:20:43.861Z,27.58
2022-08-02T14:23:12.004Z,27.71
2022-08-02T14:25:40.234Z,28.20
2022-08-02T14:28:08.299Z,28.36
2022-08-02T14:30:36.534Z,28.57
2022-08-02T14:33:05.671Z,28.55
2022-08-02T14:35:33.668Z,28.54
2022-08-02T14:38:01.617Z,28.98
2022-08-02T14:40:31.695Z,28.82
2022-08-02T14:43:00.857Z,28.90
2022-08-02T14:45:40.517Z,28.90
2022-08-02T14:48:11.990Z,28.41
2022-08-02T14:50:39.978Z,28.70
2022-08-02T14:53:12.743Z,28.78
2022-08-02T14:55:42.772Z,28.42
2022-08-02T14:58:10.970Z,28.87
2022-08-02T15:00:41.307Z,28.84
2022-08-02T15:03:11.337Z,29.07
2022-08-02T15:05:39.624Z,28.56
2022-08-02T15:08:08.042Z,28.58
2022-08-02T15:10:35.891Z,28.99
2022-08-02T15:13:03.706Z,28.99
2022-08-02T15:15:31.542Z,28.89
2022-08-02T15:18:00.111Z,29.01
2022-08-02T15:20:29.819Z,29.02
2022-08-02T15:23:00.541Z,28.84
2022-08-02T15:25:28.486Z,28.92
2022-08-02T15:27:56.315Z,28.78
2022-08-02T15:30:24.368Z,28.62
2022-08-02T15:32:53.063Z,28.73
2022-08-02T15:35:21.568Z,28.88
2022-08-02T15:37:50.779Z,28.55
2022-08-02T15:40:18.790Z,28.57
2022-08-02T15:42:46.609Z,28.62
2022-08-02T15:45:15.729Z,28.07
2022-08-02T15:47:48.133Z,28.63
2022-08-02T15:50:18.906Z,28.63
2022-08-02T15:52:46.768Z,28.42
2022-08-02T15:55:15.968Z,28.45
2022-08-02T15:57:43.924Z,28.73
2022-08-02T16:00:17.792Z,28.51
2022-08-02T16:02:47.594Z,28.57
2022-08-02T16:05:17.951Z,28.61
2022-08-02T16:07:46.623Z,28.82
2022-08-02T16:10:17.165Z,28.61
2022-08-02T16:12:45.218Z,28.92
2022-08-02T16:15:13.467Z,28.97
2022-08-02T16:17:51.413Z,28.36
2022-08-02T16:20:23.334Z,28.62
2022-08-02T16:22:51.186Z,28.41
2022-08-02T16:25:20.519Z,27.92
2022-08-02T16:28:06.575Z,28.58
2022-08-02T16:30:36.386Z,28.34
2022-08-02T16:33:04.842Z,28.26
2022-08-02T16:35:32.805Z,27.97
2022-08-02T16:38:00.631Z,28.31
2022-08-02T16:40:30.655Z,27.99
2022-08-02T16:42:58.458Z,28.68
2022-08-02T16:45:28.737Z,28.84
2022-08-02T16:48:03.688Z,28.54
2022-08-02T16:50:34.098Z,28.62
2022-08-02T16:53:07.455Z,28.80
2022-08-02T16:55:37.433Z,28.42
2022-08-02T16:58:09.858Z,28.29
2022-08-02T17:00:38.903Z,28.59
2022-08-02T17:03:14.592Z,28.17
2022-08-02T17:05:56.362Z,28.67
2022-08-02T17:08:32.130Z,28.68
2022-08-02T17:11:03.553Z,28.88
2022-08-02T17:13:34.131Z,28.93
2022-08-02T17:16:20.605Z,28.81
2022-08-02T17:18:50.642Z,28.56
2022-08-02T17:21:18.563Z,28.59
2022-08-02T17:24:04.077Z,28.52
2022-08-02T17:26:35.929Z,27.64
2022-08-02T17:29:15.887Z,28.25
2022-08-02T17:32:05.610Z,27.95
2022-08-02T17:34:35.312Z,27.98
2022-08-02T17:37:05.700Z,28.18
2022-08-02T17:39:44.347Z,28.32
2022-08-02T17:42:23.093Z,28.27
2022-08-02T17:44:53.845Z,28.28
2022-08-02T17:47:22.093Z,28.09
2022-08-02T17:49:50.201Z,28.07
2022-08-02T17:52:51.472Z,28.10
2022-08-02T17:55:13.646Z,28.10
2022-08-02T17:57:57.417Z,27.99
2022-08-02T18:00:33.923Z,28.10
2022-08-02T18:03:05.833Z,28.04
2022-08-02T18:05:40.406Z,28.04
2022-08-02T18:08:22.835Z,28.03
2022-08-02T18:10:51.354Z,27.89
2022-08-02T18:13:20.878Z,27.82
2022-08-02T18:15:50.184Z,27.93
2022-08-02T18:18:29.264Z,27.97
2022-08-02T18:20:58.627Z,27.84
2022-08-02T18:23:48.721Z,27.91
2022-08-02T18:26:20.883Z,27.72
2022-08-02T18:28:50.467Z,27.85
2022-08-02T18:31:22.361Z,27.78
2022-08-02T18:33:58.317Z,27.81
2022-08-02T18:36:29.629Z,27.73
2022-08-02T18:38:57.982Z,27.74
2022-08-02T18:41:25.857Z,27.61
2022-08-02T18:43:58.322Z,27.58
2022-08-02T18:46:30.234Z,27.45
2022-08-02T18:48:58.526Z,27.27
2022-08-02T18:51:41.439Z,27.13
2022-08-02T18:54:09.298Z,27.14
2022-08-02T18:56:39.066Z,27.13
2022-08-02T18:59:10.275Z,27.08
2022-08-02T19:01:48.730Z,26.95
2022-08-02T19:04:27.831Z,26.81
2022-08-02T19:07:05.448Z,26.76
2022-08-02T19:09:45.265Z,26.86
2022-08-02T19:12:15.784Z,26.91
2022-08-02T19:14:58.891Z,26.75
2022-08-02T19:17:55.625Z,26.71
2022-08-02T19:20:19.585Z,26.68
2022-08-02T19:22:49.998Z,26.57
2022-08-02T19:25:28.002Z,26.66
2022-08-02T19:27:56.439Z,26.56
2022-08-02T19:30:26.796Z,26.71
2022-08-02T19:33:00.140Z,26.78
2022-08-02T19:35:34.180Z,26.81
2022-08-02T19:38:11.270Z,26.77
2022-08-02T19:40:41.741Z,26.72
2022-08-02T19:44:21.680Z,26.70
2022-08-02T19:46:00.256Z,26.76
2022-08-02T19:48:28.432Z,26.74
2022-08-02T19:50:59.454Z,26.73
2022-08-02T19:53:47.441Z,26.73
2022-08-02T19:56:24.779Z,26.70
2022-08-02T19:58:55.638Z,26.57
2022-08-02T20:01:38.819Z,26.44
2022-08-02T20:04:13.128Z,26.61
2022-08-02T20:06:45.241Z,26.33
2022-08-02T20:09:16.537Z,26.02
2022-08-02T20:11:45.455Z,26.14
2022-08-02T20:14:13.465Z,26.21
2022-08-02T20:16:42.719Z,26.23
2022-08-02T20:19:14.068Z,26.45
2022-08-02T20:21:52.911Z,26.46
2022-08-02T20:24:26.607Z,26.51
2022-08-02T20:26:55.620Z,26.51
2022-08-02T20:29:42.741Z,26.46
2022-08-02T20:32:21.319Z,26.28
2022-08-02T20:34:50.976Z,26.08
2022-08-02T20:38:00.721Z,26.11
2022-08-02T20:40:17.137Z,26.22
2022-08-02T20:42:47.556Z,26.32
2022-08-02T20:45:17.024Z,26.30
2022-08-02T20:47:49.814Z,26.11
2022-08-02T20:50:36.735Z,25.99
2022-08-02T20:53:06.428Z,26.13
2022-08-02T20:55:35.710Z,25.95
2022-08-02T20:58:04.837Z,25.82
2022-08-02T21:00:33.630Z,25.72
2022-08-02T21:03:04.456Z,25.59
2022-08-02T21:05:43.532Z,25.59
2022-08-02T21:08:22.584Z,25.66
2022-08-02T21:10:53.258Z,25.61
2022-08-02T21:13:26.049Z,25.55
2022-08-02T21:18:44.420Z,25.47
2022-08-02T21:21:14.648Z,25.45
2022-08-02T21:23:48.327Z,25.32
2022-08-02T21:26:19.736Z,25.21
2022-08-02T21:28:53.904Z,25.20
2022-08-02T21:31:22.034Z,25.12
2022-08-02T21:33:58.116Z,25.16
2022-08-02T21:36:31.219Z,25.14
2022-08-02T21:39:04.346Z,25.05
2022-08-02T21:41:38.899Z,25.09
2022-08-02T21:44:15.742Z,25.12
2022-08-02T21:46:45.696Z,25.19
2022-08-02T21:49:16.310Z,25.16
2022-08-02T21:51:49.697Z,25.20
2022-08-02T21:54:21.192Z,25.05
2022-08-02T21:56:51.847Z,25.07
2022-08-02T21:59:25.860Z,25.15
2022-08-02T22:01:57.038Z,25.19
2022-08-02T22:04:26.941Z,25.06
2022-08-02T22:06:55.505Z,24.94
2022-08-02T22:09:44.176Z,24.83
2022-08-02T22:12:17.658Z,24.92
2022-08-02T22:14:53.897Z,25.08
2022-08-02T22:17:46.875Z,24.83
2022-08-02T22:20:18.174Z,25.02
2022-08-02T22:22:48.220Z,24.79
2022-08-02T22:25:27.140Z,24.92
2022-08-02T22:28:36.534Z,24.91
2022-08-02T22:30:57.007Z,24.94
2022-08-02T22:33:47.445Z,25.06
2022-08-02T22:36:32.250Z,24.90
2022-08-02T22:39:01.744Z,24.87
2022-08-02T22:42:02.027Z,24.95
2022-08-02T22:44:18.834Z,24.86
2022-08-02T22:46:50.014Z,24.93
2022-08-02T22:49:38.410Z,24.91
2022-08-02T22:52:08.475Z,24.96
2022-08-02T22:54:38.685Z,24.95
2022-08-02T22:57:06.778Z,25.09
2022-08-02T22:59:40.754Z,24.98
2022-08-02T23:02:09.726Z,24.94
2022-08-02T23:04:38.261Z,24.96
2022-08-02T23:07:07.768Z,24.67
2022-08-02T23:09:35.602Z,24.70
2022-08-02T23:12:03.901Z,24.77
2022-08-02T23:14:32.023Z,24.75
2022-08-02T23:17:17.293Z,24.83
2022-08-02T23:19:54.354Z,24.71
2022-08-02T23:22:29.893Z,24.78
2022-08-02T23:25:02.378Z,24.73
2022-08-02T23:27:31.117Z,24.73
2022-08-02T23:29:59.704Z,24.31
2022-08-02T23:32:28.883Z,24.64
2022-08-02T23:34:58.706Z,24.40
2022-08-02T23:37:28.407Z,24.58
2022-08-02T23:40:16.242Z,24.64
2022-08-02T23:43:12.400Z,24.69
2022-08-02T23:45:44.963Z,24.52
2022-08-02T23:48:12.850Z,24.17
2022-08-02T23:50:41.000Z,24.48
2022-08-02T23:53:10.141Z,24.48
2022-08-02T23:55:38.078Z,24.38
2022-08-02T23:58:05.888Z,24.75
